Time;durP1;ratioP1;P1;durP2;ratioP2;P2;SDS_P1;SDS_P2;PMS_P1;PMS_P2;Temp;Humidity;BMP_temperature;BMP_pressure;BME280_temperature;BME280_humidity;BME280_pressure;Samples;Min_cycle;Max_cycle;Signal;HPM_P1;HPM_P2
2021/03/03 00:00:07;;;;;;;21.43;8.60;;;5.40;99.90;;;;;;4955830;29;20442;-84
2021/03/03 00:02:33;;;;;;;16.03;9.30;;;5.50;99.90;;;;;;4955403;29;20900;-84
2021/03/03 00:05:00;;;;;;;17.13;9.20;;;5.40;99.90;;;;;;4954590;28;20485;-84
2021/03/03 00:07:27;;;;;;;20.17;9.37;;;5.40;99.90;;;;;;4948560;29;20825;-84
2021/03/03 00:09:55;;;;;;;22.93;10.47;;;5.30;99.90;;;;;;4955402;29;20925;-85
2021/03/03 00:12:21;;;;;;;18.53;9.50;;;5.40;99.90;;;;;;4954607;29;20548;-84
2021/03/03 00:14:48;;;;;;;17.67;9.80;;;5.30;99.90;;;;;;4954881;29;20492;-89
2021/03/03 00:17:14;;;;;;;14.57;8.00;;;5.30;99.90;;;;;;4960707;28;20442;-85
2021/03/03 00:19:41;;;;;;;15.83;9.10;;;5.20;99.90;;;;;;4957240;28;20811;-85
2021/03/03 00:22:08;;;;;;;17.30;10.13;;;5.20;99.90;;;;;;4958114;29;20513;-85
2021/03/03 00:24:34;;;;;;;16.77;8.80;;;5.20;99.90;;;;;;4957786;28;20474;-85
2021/03/03 00:27:00;;;;;;;17.20;8.37;;;5.10;99.90;;;;;;4958269;29;20453;-84
2021/03/03 00:29:27;;;;;;;17.47;9.20;;;5.20;99.90;;;;;;4957827;29;20466;-84
2021/03/03 00:31:53;;;;;;;21.70;9.60;;;5.10;99.90;;;;;;4957993;29;21013;-85
2021/03/03 00:34:19;;;;;;;17.77;9.33;;;5.10;99.90;;;;;;4958072;29;20458;-87
2021/03/03 00:36:45;;;;;;;16.93;8.90;;;5.10;99.90;;;;;;4958004;29;20454;-85
2021/03/03 00:39:13;;;;;;;15.43;9.50;;;5.00;99.90;;;;;;4957792;29;20826;-85
2021/03/03 00:41:39;;;;;;;19.53;9.80;;;5.00;99.90;;;;;;4957954;29;20852;-85
2021/03/03 00:44:06;;;;;;;22.83;11.07;;;5.00;99.90;;;;;;4958900;29;20458;-85
2021/03/03 00:46:32;;;;;;;20.97;10.53;;;5.00;99.90;;;;;;4957554;28;20458;-85
2021/03/03 00:48:58;;;;;;;16.50;10.10;;;5.00;99.90;;;;;;4957912;29;20549;-85
2021/03/03 00:51:24;;;;;;;22.33;10.87;;;5.00;99.90;;;;;;4957515;29;20449;-85
2021/03/03 00:53:51;;;;;;;17.47;9.93;;;5.00;99.90;;;;;;4958035;29;20513;-85
2021/03/03 00:56:18;;;;;;;20.43;10.07;;;5.00;99.90;;;;;;4957390;28;20462;-85
2021/03/03 00:58:44;;;;;;;18.07;10.57;;;5.00;99.90;;;;;;4957909;29;20453;-85
2021/03/03 01:01:10;;;;;;;19.37;10.10;;;5.00;99.90;;;;;;4957132;29;20455;-84
2021/03/03 01:03:37;;;;;;;19.43;11.27;;;5.00;99.90;;;;;;4957751;29;20455;-85
2021/03/03 01:06:03;;;;;;;20.90;10.70;;;5.10;99.90;;;;;;4957055;28;20989;-85
2021/03/03 01:08:29;;;;;;;16.30;10.10;;;5.10;99.90;;;;;;4957422;28;20481;-85
2021/03/03 01:10:56;;;;;;;19.57;10.40;;;5.10;99.90;;;;;;4956765;28;20958;-84
2021/03/03 01:13:23;;;;;;;18.37;10.77;;;5.10;99.90;;;;;;4957332;29;20454;-84
2021/03/03 01:15:49;;;;;;;19.83;10.10;;;5.20;99.90;;;;;;4956818;28;20497;-85
2021/03/03 01:18:15;;;;;;;27.00;10.60;;;5.20;99.90;;;;;;4957281;29;20454;-84
2021/03/03 01:20:42;;;;;;;18.57;10.10;;;5.20;99.90;;;;;;4956948;29;20451;-84
2021/03/03 01:23:08;;;;;;;16.23;11.47;;;5.10;99.90;;;;;;4957105;29;20446;-84
2021/03/03 01:25:35;;;;;;;21.60;11.70;;;5.10;99.90;;;;;;4956521;28;20482;-84
2021/03/03 01:28:01;;;;;;;19.43;11.30;;;5.10;99.90;;;;;;4957081;29;20802;-84
2021/03/03 01:30:28;;;;;;;22.47;10.90;;;5.10;99.90;;;;;;4956445;28;20501;-84
2021/03/03 01:32:55;;;;;;;18.67;9.93;;;5.00;99.90;;;;;;4956736;29;20473;-84
2021/03/03 01:35:21;;;;;;;19.70;10.97;;;5.00;99.90;;;;;;4956529;28;20994;-85
2021/03/03 01:37:47;;;;;;;22.77;11.37;;;5.00;99.90;;;;;;4956995;29;20461;-84
2021/03/03 01:40:14;;;;;;;22.63;10.47;;;5.00;99.90;;;;;;4956214;29;20457;-85
2021/03/03 01:42:41;;;;;;;17.00;10.50;;;5.00;99.90;;;;;;4956624;29;21022;-85
2021/03/03 01:45:08;;;;;;;25.30;11.27;;;5.00;99.90;;;;;;4956638;28;20470;-85
2021/03/03 01:47:35;;;;;;;19.20;10.37;;;4.90;99.90;;;;;;4956986;29;20454;-85
2021/03/03 01:50:05;;;;;;;20.90;11.10;;;4.90;99.90;;;;;;4956194;29;20466;-84
2021/03/03 01:52:32;;;;;;;20.77;10.73;;;4.90;99.90;;;;;;4956389;29;20468;-84
2021/03/03 01:54:58;;;;;;;18.50;9.93;;;4.90;99.90;;;;;;4947702;29;20474;-83
2021/03/03 01:57:25;;;;;;;17.43;10.20;;;4.90;99.90;;;;;;4957079;29;20472;-83
2021/03/03 01:59:52;;;;;;;19.93;10.00;;;4.90;99.90;;;;;;4955867;29;20447;-83
2021/03/03 02:02:19;;;;;;;19.90;10.40;;;4.90;99.90;;;;;;4955982;29;20958;-83
2021/03/03 02:04:46;;;;;;;20.13;10.80;;;4.90;99.90;;;;;;4956232;28;20982;-83
2021/03/03 02:07:24;;;;;;;22.20;11.40;;;4.90;99.90;;;;;;4956196;29;20462;-83
2021/03/03 02:09:58;;;;;;;20.30;11.17;;;4.90;99.90;;;;;;4955726;29;20546;-83
2021/03/03 02:12:28;;;;;;;18.10;9.70;;;4.90;99.90;;;;;;4956095;29;20446;-83
2021/03/03 02:14:57;;;;;;;25.10;10.53;;;4.90;99.90;;;;;;4955639;29;20490;-83
2021/03/03 02:17:27;;;;;;;18.40;9.60;;;5.00;99.90;;;;;;4955916;29;20938;-83
2021/03/03 02:19:59;;;;;;;19.20;10.90;;;4.90;99.90;;;;;;4955396;28;20966;-83
2021/03/03 02:22:35;;;;;;;18.37;10.60;;;4.90;99.90;;;;;;4956356;29;20457;-83
2021/03/03 02:25:06;;;;;;;20.20;11.80;;;4.90;99.90;;;;;;4954885;28;20478;-83
2021/03/03 02:27:34;;;;;;;14.33;9.40;;;4.80;99.90;;;;;;4955791;29;20439;-83
2021/03/03 02:30:02;;;;;;;22.20;11.20;;;4.90;99.90;;;;;;4955202;29;20519;-82
2021/03/03 02:32:28;;;;;;;28.73;11.43;;;4.90;99.90;;;;;;4955505;29;20443;-83
2021/03/03 02:34:55;;;;;;;21.03;12.03;;;4.90;99.90;;;;;;4955404;28;20467;-82
2021/03/03 02:37:23;;;;;;;17.80;10.23;;;4.90;99.90;;;;;;4955367;29;20458;-83
2021/03/03 02:39:51;;;;;;;18.40;10.30;;;4.90;99.90;;;;;;4955171;29;20453;-83
2021/03/03 02:42:19;;;;;;;21.90;10.50;;;4.80;99.90;;;;;;4955219;28;20464;-83
2021/03/03 02:44:47;;;;;;;19.57;10.60;;;4.80;99.90;;;;;;4955261;28;20466;-82
2021/03/03 02:47:15;;;;;;;19.40;11.00;;;4.80;99.90;;;;;;4956041;29;20446;-83
2021/03/03 02:49:43;;;;;;;18.30;10.23;;;4.80;99.90;;;;;;4955574;29;20819;-83
2021/03/03 02:52:10;;;;;;;19.70;10.40;;;4.80;99.90;;;;;;4955682;29;20493;-83
2021/03/03 02:54:36;;;;;;;20.27;10.83;;;4.80;99.90;;;;;;4955023;28;20477;-83
2021/03/03 02:57:02;;;;;;;24.10;11.73;;;4.80;99.90;;;;;;4955501;29;20513;-83
2021/03/03 02:59:35;;;;;;;17.80;10.47;;;4.80;99.90;;;;;;4955431;29;20446;-83
2021/03/03 03:02:06;;;;;;;20.70;11.80;;;4.80;99.90;;;;;;4955433;29;20802;-82
2021/03/03 03:04:36;;;;;;;21.60;11.17;;;4.80;99.90;;;;;;4954624;29;20994;-83
2021/03/03 03:07:07;;;;;;;25.30;11.40;;;4.80;99.90;;;;;;4955457;29;20447;-83
2021/03/03 03:09:34;;;;;;;21.67;11.30;;;4.80;99.90;;;;;;4954971;29;20615;-83
2021/03/03 03:12:03;;;;;;;21.97;11.67;;;4.70;99.90;;;;;;4955156;29;20454;-83
2021/03/03 03:14:30;;;;;;;24.03;12.70;;;4.70;99.90;;;;;;4954738;29;20536;-83
2021/03/03 03:16:59;;;;;;;23.03;12.30;;;4.70;99.90;;;;;;4955231;29;20467;-83
2021/03/03 03:19:32;;;;;;;22.57;11.20;;;4.70;99.90;;;;;;4954876;29;20452;-83
2021/03/03 03:22:00;;;;;;;21.83;11.60;;;4.70;99.90;;;;;;4954459;29;20442;-82
2021/03/03 03:24:26;;;;;;;22.97;11.07;;;4.70;99.90;;;;;;4954851;28;20821;-83
2021/03/03 03:26:54;;;;;;;22.03;12.20;;;4.70;99.90;;;;;;4954649;29;20458;-83
2021/03/03 03:29:20;;;;;;;21.23;11.67;;;4.60;99.90;;;;;;4954527;29;20521;-83
2021/03/03 03:31:48;;;;;;;18.43;10.63;;;4.60;99.90;;;;;;4954323;29;20445;-82
2021/03/03 03:34:15;;;;;;;18.40;11.47;;;4.60;99.90;;;;;;4954681;28;20455;-83
2021/03/03 03:36:43;;;;;;;26.87;13.13;;;4.60;99.90;;;;;;4954707;29;20453;-83
2021/03/03 03:39:11;;;;;;;21.13;11.33;;;4.60;99.90;;;;;;4954828;28;20458;-83
2021/03/03 03:41:39;;;;;;;19.80;11.40;;;4.60;99.90;;;;;;4954302;29;20954;-83
2021/03/03 03:44:08;;;;;;;25.60;11.70;;;4.50;99.90;;;;;;4954840;29;20439;-83
2021/03/03 03:46:35;;;;;;;20.20;11.97;;;4.50;99.90;;;;;;4954005;28;20869;-83
2021/03/03 03:49:03;;;;;;;20.27;11.50;;;4.50;99.90;;;;;;4954567;29;20512;-82
2021/03/03 03:51:30;;;;;;;20.40;12.17;;;4.50;99.90;;;;;;4954211;29;20446;-83
2021/03/03 03:53:57;;;;;;;28.57;12.10;;;4.50;99.90;;;;;;4955862;28;20446;-84
2021/03/03 03:56:24;;;;;;;18.70;10.90;;;4.40;99.90;;;;;;4958597;29;20662;-85
2021/03/03 03:58:50;;;;;;;24.03;12.80;;;4.40;99.90;;;;;;4958273;29;20451;-85
2021/03/03 04:01:16;;;;;;;17.40;10.40;;;4.40;99.90;;;;;;4958315;29;20446;-83
2021/03/03 04:03:42;;;;;;;19.87;11.57;;;4.40;99.90;;;;;;4958945;29;20977;-85
2021/03/03 04:06:09;;;;;;;23.67;11.40;;;4.40;99.90;;;;;;4958011;29;20985;-83
2021/03/03 04:08:35;;;;;;;20.30;11.53;;;4.40;99.90;;;;;;4958579;28;20488;-83
2021/03/03 04:11:02;;;;;;;21.13;10.50;;;4.40;99.90;;;;;;4958434;29;20458;-84
2021/03/03 04:13:29;;;;;;;22.73;11.70;;;4.40;99.90;;;;;;4958787;29;20446;-84
2021/03/03 04:15:55;;;;;;;20.53;11.97;;;4.40;99.90;;;;;;4958424;28;20982;-89
2021/03/03 04:18:21;;;;;;;24.80;12.07;;;4.40;99.90;;;;;;4959063;29;20462;-89
2021/03/03 04:20:48;;;;;;;20.40;11.60;;;4.40;99.90;;;;;;4959120;29;20453;-89
2021/03/03 04:23:14;;;;;;;25.33;12.30;;;4.40;99.90;;;;;;4958639;29;20803;-89
2021/03/03 04:25:40;;;;;;;29.10;12.30;;;4.40;99.90;;;;;;4959022;28;20470;-89
2021/03/03 04:28:08;;;;;;;25.53;12.43;;;4.40;99.90;;;;;;4959350;29;20452;-88
2021/03/03 04:30:35;;;;;;;24.63;11.80;;;4.40;99.90;;;;;;4957922;29;21076;-83
2021/03/03 04:33:02;;;;;;;20.23;12.37;;;4.40;99.90;;;;;;4957390;29;20501;-83
2021/03/03 04:35:28;;;;;;;20.77;12.20;;;4.40;99.90;;;;;;4957916;28;20552;-84
2021/03/03 04:37:54;;;;;;;26.63;13.10;;;4.40;99.90;;;;;;4957858;29;20454;-84
2021/03/03 04:40:21;;;;;;;18.37;10.73;;;4.40;99.90;;;;;;4957610;29;20820;-85
2021/03/03 04:42:48;;;;;;;21.70;12.23;;;4.30;99.90;;;;;;4957053;29;20449;-84
2021/03/03 04:45:16;;;;;;;26.57;11.80;;;4.40;99.90;;;;;;4957660;29;20458;-84
2021/03/03 04:47:42;;;;;;;22.77;12.47;;;4.40;99.90;;;;;;4957095;29;20996;-84
2021/03/03 04:50:09;;;;;;;26.63;12.37;;;4.30;99.90;;;;;;4957418;29;20481;-85
2021/03/03 04:52:36;;;;;;;23.27;10.80;;;4.40;99.90;;;;;;4957123;29;21012;-85
2021/03/03 04:55:03;;;;;;;22.70;11.60;;;4.40;99.90;;;;;;4957495;28;20458;-89
2021/03/03 05:00:13;;;;;;;23.63;12.43;;;4.40;99.90;;;;;;4956714;29;20537;-85
2021/03/03 05:02:40;;;;;;;20.53;11.70;;;4.30;99.90;;;;;;4957435;29;20450;-85
2021/03/03 05:05:07;;;;;;;20.80;11.93;;;4.30;99.90;;;;;;4956435;28;20987;-84
2021/03/03 05:07:34;;;;;;;19.37;11.80;;;4.30;99.90;;;;;;4957229;29;20462;-84
2021/03/03 05:10:00;;;;;;;18.20;11.00;;;4.30;99.90;;;;;;4957350;28;20485;-84
2021/03/03 05:12:27;;;;;;;30.70;11.63;;;4.30;99.90;;;;;;4956896;29;20454;-84
2021/03/03 05:14:54;;;;;;;20.67;11.10;;;4.30;99.90;;;;;;4956891;29;20478;-84
2021/03/03 05:17:20;;;;;;;19.27;11.50;;;4.20;99.90;;;;;;4957045;29;20947;-84
2021/03/03 05:19:48;;;;;;;23.87;12.57;;;4.20;99.90;;;;;;4957431;29;20446;-84
2021/03/03 05:22:14;;;;;;;26.70;11.33;;;4.20;99.90;;;;;;4956573;29;20958;-84
2021/03/03 05:24:40;;;;;;;22.10;11.83;;;4.20;99.90;;;;;;4957150;28;20458;-83
2021/03/03 05:27:07;;;;;;;24.97;12.50;;;4.10;99.90;;;;;;4956504;29;20450;-83
2021/03/03 05:29:33;;;;;;;20.53;11.90;;;4.10;99.90;;;;;;4956721;28;20485;-83
2021/03/03 05:31:59;;;;;;;22.10;11.17;;;4.10;99.90;;;;;;4956423;29;20450;-85
2021/03/03 05:34:26;;;;;;;17.50;11.07;;;4.10;99.90;;;;;;4956963;29;20461;-83
2021/03/03 05:36:53;;;;;;;18.57;12.40;;;4.20;99.90;;;;;;4956370;29;20834;-85
2021/03/03 05:39:19;;;;;;;20.00;11.07;;;4.20;99.90;;;;;;4956380;29;20537;-85
2021/03/03 05:41:46;;;;;;;20.80;12.37;;;4.20;99.90;;;;;;4957293;29;20938;-89
2021/03/03 05:44:12;;;;;;;25.53;13.00;;;4.20;99.90;;;;;;4957783;29;20461;-89
2021/03/03 05:46:40;;;;;;;22.43;12.23;;;4.10;99.90;;;;;;4957377;29;20446;-89
2021/03/03 05:49:06;;;;;;;21.60;12.27;;;4.10;99.90;;;;;;4956462;29;20482;-84
2021/03/03 05:51:37;;;;;;;18.80;10.47;;;4.10;99.90;;;;;;4956608;29;20449;-84
2021/03/03 05:54:06;;;;;;;19.47;11.20;;;4.00;99.90;;;;;;4956398;29;20781;-84
2021/03/03 05:56:33;;;;;;;33.17;11.40;;;4.00;99.90;;;;;;4956249;28;20477;-85
2021/03/03 05:59:00;;;;;;;25.80;11.80;;;4.10;99.90;;;;;;4955981;29;20452;-85
2021/03/03 06:01:27;;;;;;;20.47;13.40;;;4.10;99.90;;;;;;4955929;29;20461;-85
2021/03/03 06:03:53;;;;;;;18.30;11.53;;;4.10;99.90;;;;;;4956513;29;20517;-85
2021/03/03 06:06:20;;;;;;;19.70;11.70;;;4.10;99.90;;;;;;4955933;28;20482;-85
2021/03/03 06:08:48;;;;;;;19.77;12.03;;;4.10;99.90;;;;;;4956362;29;20462;-85
2021/03/03 06:11:15;;;;;;;19.70;11.83;;;4.10;99.90;;;;;;4955978;29;20501;-85
2021/03/03 06:13:41;;;;;;;27.90;11.30;;;4.10;99.90;;;;;;4956129;29;20541;-85
2021/03/03 06:16:19;;;;;;;19.43;11.43;;;4.10;99.90;;;;;;4955178;28;20493;-84
2021/03/03 06:18:55;;;;;;;20.00;10.90;;;4.10;99.90;;;;;;4955917;28;20474;-84
2021/03/03 06:21:26;;;;;;;21.17;10.80;;;4.10;99.90;;;;;;4955525;29;20961;-84
2021/03/03 06:23:59;;;;;;;18.17;11.90;;;4.10;99.90;;;;;;4956224;29;20458;-84
2021/03/03 06:26:27;;;;;;;20.23;11.07;;;4.20;99.90;;;;;;4956004;29;20458;-84
2021/03/03 06:28:53;;;;;;;14.60;10.77;;;4.20;99.90;;;;;;4956112;29;20455;-84
2021/03/03 06:31:25;;;;;;;21.60;11.33;;;4.30;99.90;;;;;;4955195;29;20446;-84
2021/03/03 06:33:53;;;;;;;20.67;11.17;;;4.30;99.90;;;;;;4955908;29;20453;-84
2021/03/03 06:36:21;;;;;;;18.47;10.90;;;4.40;99.90;;;;;;4955444;29;20485;-84
2021/03/03 06:38:47;;;;;;;17.60;10.50;;;4.40;99.90;;;;;;4955496;29;20457;-84
2021/03/03 06:41:14;;;;;;;20.20;11.77;;;4.40;99.90;;;;;;4955602;29;20461;-84
2021/03/03 06:43:55;;;;;;;20.17;11.00;;;4.50;99.90;;;;;;4955239;29;20958;-84
2021/03/03 06:46:21;;;;;;;16.83;10.83;;;4.50;99.90;;;;;;4955055;29;20521;-84
2021/03/03 06:48:47;;;;;;;18.57;11.43;;;4.50;99.90;;;;;;4956080;29;20443;-84
2021/03/03 06:51:26;;;;;;;19.33;11.23;;;4.50;99.90;;;;;;4955830;29;21012;-84
2021/03/03 06:53:53;;;;;;;17.27;11.20;;;4.50;99.90;;;;;;4955294;29;20446;-84
2021/03/03 06:56:36;;;;;;;21.20;11.97;;;4.60;99.90;;;;;;4955182;29;20507;-84
2021/03/03 06:59:18;;;;;;;19.10;12.20;;;4.60;99.90;;;;;;4956248;29;20550;-83
2021/03/03 07:01:46;;;;;;;19.67;12.20;;;4.60;99.90;;;;;;4955290;29;20861;-84
2021/03/03 07:04:23;;;;;;;18.70;11.47;;;4.60;99.90;;;;;;4955517;29;20451;-84
2021/03/03 07:06:51;;;;;;;23.07;11.50;;;4.70;99.90;;;;;;4955078;29;20464;-84
2021/03/03 07:09:17;;;;;;;19.10;11.83;;;4.80;99.90;;;;;;4955494;29;20501;-85
2021/03/03 07:11:44;;;;;;;16.83;11.90;;;4.80;99.90;;;;;;4955890;29;20453;-84
2021/03/03 07:14:17;;;;;;;23.70;12.10;;;4.90;99.90;;;;;;4956304;29;20446;-84
2021/03/03 07:17:08;;;;;;;21.33;12.77;;;5.00;99.90;;;;;;4954982;29;20455;-84
2021/03/03 07:19:35;;;;;;;20.60;12.43;;;5.00;99.90;;;;;;4949773;29;20819;-84
2021/03/03 07:22:03;;;;;;;18.53;10.97;;;5.10;99.90;;;;;;4945484;29;20445;-84
2021/03/03 07:24:29;;;;;;;20.17;10.70;;;5.10;99.90;;;;;;4955170;28;20525;-84
2021/03/03 07:26:55;;;;;;;17.97;10.53;;;5.20;99.90;;;;;;4954806;29;20522;-84
2021/03/03 07:29:23;;;;;;;19.20;10.90;;;5.30;99.90;;;;;;4954509;29;20482;-84
2021/03/03 07:31:50;;;;;;;20.30;11.60;;;5.40;99.90;;;;;;4955247;29;20473;-84
2021/03/03 07:34:17;;;;;;;19.30;11.47;;;5.50;99.90;;;;;;4954863;29;20446;-84
2021/03/03 07:36:49;;;;;;;18.67;10.90;;;5.60;99.90;;;;;;4954947;29;20454;-84
2021/03/03 07:39:19;;;;;;;19.50;11.77;;;5.60;99.90;;;;;;4955040;29;20842;-84
2021/03/03 07:41:48;;;;;;;19.37;10.80;;;5.70;99.90;;;;;;4954444;29;20435;-84
2021/03/03 07:44:18;;;;;;;19.63;11.60;;;5.70;99.90;;;;;;4954590;28;20446;-84
2021/03/03 07:46:48;;;;;;;17.00;10.80;;;5.80;99.90;;;;;;4954740;29;20438;-84
2021/03/03 07:49:19;;;;;;;24.20;10.83;;;5.90;99.90;;;;;;4954148;29;20481;-84
2021/03/03 07:51:46;;;;;;;15.73;10.47;;;6.00;99.90;;;;;;4954606;29;20454;-84
2021/03/03 07:54:13;;;;;;;17.83;11.03;;;6.00;99.90;;;;;;4954337;29;20962;-84
2021/03/03 07:56:41;;;;;;;22.73;11.43;;;6.10;99.90;;;;;;4954670;29;20441;-84
2021/03/03 07:59:07;;;;;;;17.60;11.23;;;6.20;99.90;;;;;;4954592;29;20451;-84
2021/03/03 08:01:35;;;;;;;18.43;10.47;;;6.30;99.90;;;;;;4955077;29;20450;-84
2021/03/03 08:04:02;;;;;;;19.47;12.20;;;6.40;99.90;;;;;;4954551;29;20951;-84
2021/03/03 08:06:36;;;;;;;18.87;11.70;;;6.50;99.90;;;;;;4954672;29;20497;-85
2021/03/03 08:09:23;;;;;;;15.40;10.27;;;6.50;99.90;;;;;;4954997;29;20460;-87
2021/03/03 08:12:03;;;;;;;27.00;12.17;;;6.60;99.90;;;;;;4941261;28;20505;-83
2021/03/03 08:14:35;;;;;;;23.57;11.43;;;6.70;99.90;;;;;;4953258;28;20486;-82
2021/03/03 08:17:03;;;;;;;17.87;11.23;;;6.80;99.90;;;;;;4954753;29;20524;-82
2021/03/03 08:19:58;;;;;;;18.50;10.63;;;6.90;99.90;;;;;;4954672;29;20477;-82
2021/03/03 08:22:50;;;;;;;14.67;9.60;;;6.90;99.90;;;;;;4954585;29;20450;-82
2021/03/03 08:25:47;;;;;;;15.80;10.10;;;7.10;99.90;;;;;;4944950;28;20474;-83
2021/03/03 08:28:27;;;;;;;21.30;10.80;;;7.10;99.90;;;;;;4894681;29;20788;-83
2021/03/03 08:31:31;;;;;;;17.17;10.60;;;7.20;99.90;;;;;;4927634;29;20490;-83
2021/03/03 08:34:04;;;;;;;19.77;10.70;;;7.30;99.90;;;;;;4945593;29;20446;-85
2021/03/03 08:37:05;;;;;;;19.70;11.47;;;7.40;99.90;;;;;;4954119;28;20506;-85
2021/03/03 08:39:39;;;;;;;16.33;10.60;;;7.40;99.90;;;;;;4954868;28;20435;-85
2021/03/03 08:42:36;;;;;;;22.70;12.17;;;7.60;99.90;;;;;;4957551;29;20461;-84
2021/03/03 08:45:09;;;;;;;18.53;11.83;;;7.70;99.90;;;;;;4938013;29;20494;-85
2021/03/03 08:47:57;;;;;;;20.40;11.60;;;7.70;99.90;;;;;;4946259;29;20969;-85
2021/03/03 08:50:29;;;;;;;21.97;11.60;;;7.70;99.90;;;;;;4957312;29;20828;-84
2021/03/03 08:53:18;;;;;;;18.40;11.37;;;7.70;99.90;;;;;;4957135;29;20458;-84
2021/03/03 08:55:44;;;;;;;19.30;12.00;;;7.70;99.90;;;;;;4957288;29;20475;-84
2021/03/03 08:58:48;;;;;;;19.17;12.23;;;7.70;99.90;;;;;;4957620;29;20767;-84
2021/03/03 09:01:16;;;;;;;20.10;11.40;;;7.90;99.90;;;;;;4957358;29;20789;-84
2021/03/03 09:03:43;;;;;;;19.83;11.20;;;8.00;99.90;;;;;;4957253;29;20517;-85
2021/03/03 09:06:10;;;;;;;20.67;12.00;;;8.10;99.90;;;;;;4957569;28;20536;-85
2021/03/03 09:08:37;;;;;;;22.00;12.07;;;8.10;99.90;;;;;;4957258;29;20461;-85
2021/03/03 09:11:03;;;;;;;18.70;11.80;;;8.20;99.90;;;;;;4957371;29;20482;-86
2021/03/03 09:13:30;;;;;;;13.80;8.70;;;8.30;99.90;;;;;;4957067;29;20478;-84
2021/03/03 09:16:03;;;;;;;14.50;8.37;;;8.50;99.90;;;;;;4956802;29;20485;-85
2021/03/03 09:18:30;;;;;;;14.80;8.20;;;8.60;99.90;;;;;;4957163;29;20956;-84
2021/03/03 09:21:10;;;;;;;13.43;7.93;;;8.60;99.90;;;;;;4956569;29;20455;-84
2021/03/03 09:23:38;;;;;;;15.97;9.07;;;8.80;99.90;;;;;;4957541;29;20441;-89
2021/03/03 09:26:18;;;;;;;20.57;11.23;;;8.90;99.90;;;;;;4957837;29;20470;-89
2021/03/03 09:28:44;;;;;;;17.93;11.60;;;9.00;99.90;;;;;;4957471;29;20927;-89
2021/03/03 09:31:28;;;;;;;18.93;11.70;;;9.20;99.90;;;;;;4957678;29;21048;-89
2021/03/03 09:33:54;;;;;;;17.03;11.63;;;9.30;99.90;;;;;;4958420;29;20926;-88
2021/03/03 09:36:20;;;;;;;18.87;12.60;;;9.40;99.90;;;;;;4958127;29;21028;-89
2021/03/03 09:38:54;;;;;;;19.87;13.57;;;9.60;99.90;;;;;;4957743;29;20470;-88
2021/03/03 09:41:20;;;;;;;20.87;13.27;;;9.60;99.90;;;;;;4957976;29;20447;-88
2021/03/03 09:43:58;;;;;;;24.10;13.63;;;9.80;99.90;;;;;;4957053;29;20501;-88
2021/03/03 09:46:24;;;;;;;19.27;12.70;;;9.90;99.90;;;;;;4957071;29;20466;-89
2021/03/03 09:48:51;;;;;;;20.20;12.53;;;10.10;99.90;;;;;;4957570;29;20454;-88
2021/03/03 09:51:17;;;;;;;23.10;13.23;;;10.30;99.90;;;;;;4957005;28;20478;-89
2021/03/03 09:53:51;;;;;;;15.03;9.87;;;10.40;99.90;;;;;;4956916;29;20465;-89
2021/03/03 09:56:31;;;;;;;11.60;7.67;;;10.50;99.90;;;;;;4957235;28;21013;-89
2021/03/03 09:58:58;;;;;;;12.70;8.27;;;10.70;98.20;;;;;;4956299;29;20454;-84
2021/03/03 10:36:57;;;;;;;22.50;12.97;;;12.30;89.00;;;;;;4894909;29;20476;-86
2021/03/03 10:39:27;;;;;;;20.57;13.47;;;12.40;92.00;;;;;;4892576;29;20453;-83
2021/03/03 10:42:00;;;;;;;21.10;12.50;;;12.60;92.10;;;;;;4911226;29;20459;-83
2021/03/03 10:44:38;;;;;;;18.83;12.90;;;12.80;91.80;;;;;;4917353;29;20448;-83
2021/03/03 10:47:04;;;;;;;19.87;13.30;;;13.00;91.70;;;;;;4917637;29;20432;-82
2021/03/03 10:49:31;;;;;;;20.33;12.43;;;13.30;90.80;;;;;;4916825;29;20471;-85
2021/03/03 10:51:58;;;;;;;19.67;11.90;;;13.30;90.00;;;;;;4916571;29;20504;-83
2021/03/03 10:54:31;;;;;;;16.20;11.87;;;13.50;89.50;;;;;;4917468;29;20460;-84
2021/03/03 10:57:04;;;;;;;18.20;11.10;;;13.60;89.00;;;;;;4917024;29;20451;-83
2021/03/03 10:59:31;;;;;;;19.57;11.90;;;13.60;87.50;;;;;;4916632;29;20861;-83
2021/03/03 11:01:59;;;;;;;18.37;10.87;;;13.70;86.50;;;;;;4916391;29;20452;-82
2021/03/03 11:04:37;;;;;;;19.57;12.00;;;13.90;86.30;;;;;;4912922;29;20911;-85
2021/03/03 11:07:06;;;;;;;15.87;9.67;;;14.00;85.50;;;;;;4913994;29;20448;-83
2021/03/03 11:09:32;;;;;;;13.40;10.00;;;13.90;81.50;;;;;;4917351;29;20484;-83
2021/03/03 11:11:59;;;;;;;14.17;9.03;;;13.80;74.90;;;;;;4915429;29;20948;-83
2021/03/03 11:14:27;;;;;;;19.87;10.43;;;13.80;73.50;;;;;;4902161;29;20516;-82
2021/03/03 11:16:55;;;;;;;17.10;9.43;;;13.80;72.60;;;;;;4917024;29;20983;-82
2021/03/03 11:19:22;;;;;;;17.20;8.70;;;13.70;71.70;;;;;;4917000;29;20447;-81
2021/03/03 11:21:49;;;;;;;13.60;8.97;;;13.70;71.60;;;;;;4916387;29;20962;-81
2021/03/03 11:24:16;;;;;;;19.53;9.33;;;13.80;69.40;;;;;;4916973;29;20448;-81
2021/03/03 11:26:44;;;;;;;14.77;8.87;;;13.80;67.80;;;;;;4916863;29;20458;-81
2021/03/03 11:29:12;;;;;;;14.60;9.00;;;13.70;67.70;;;;;;4916935;29;20452;-83
2021/03/03 11:31:39;;;;;;;11.73;8.67;;;13.80;68.40;;;;;;4916096;29;20488;-83
2021/03/03 11:34:06;;;;;;;13.03;8.80;;;13.90;68.30;;;;;;4916581;29;20437;-83
2021/03/03 11:36:32;;;;;;;18.30;9.90;;;13.90;68.30;;;;;;4916678;29;20503;-85
2021/03/03 11:38:59;;;;;;;20.03;9.23;;;13.80;67.50;;;;;;4953109;29;20477;-85
2021/03/03 11:41:26;;;;;;;15.33;8.60;;;13.90;67.60;;;;;;4955031;29;20809;-84
2021/03/03 11:43:52;;;;;;;15.07;8.70;;;14.00;67.10;;;;;;4954774;29;20443;-84
2021/03/03 11:46:19;;;;;;;13.40;8.70;;;14.00;67.70;;;;;;4954797;28;20482;-84
2021/03/03 11:48:45;;;;;;;13.60;8.90;;;14.10;66.80;;;;;;4954498;29;20450;-84
2021/03/03 11:51:12;;;;;;;15.20;8.53;;;13.90;67.20;;;;;;4954518;28;20459;-84
2021/03/03 11:53:39;;;;;;;15.10;8.47;;;14.00;67.80;;;;;;4954807;29;20465;-84
2021/03/03 11:56:06;;;;;;;17.30;8.87;;;13.90;67.30;;;;;;4954790;28;20474;-84
2021/03/03 11:58:33;;;;;;;17.00;8.57;;;13.90;67.10;;;;;;4954343;29;20443;-84
2021/03/03 12:00:59;;;;;;;12.53;8.20;;;14.00;67.00;;;;;;4954858;29;20443;-84
2021/03/03 12:03:25;;;;;;;15.80;7.70;;;14.10;67.70;;;;;;4955057;29;20478;-84
2021/03/03 12:05:52;;;;;;;16.53;8.90;;;14.20;66.90;;;;;;4954924;28;20477;-79
2021/03/03 12:08:18;;;;;;;14.00;9.60;;;14.20;66.50;;;;;;4956290;28;20453;-79
2021/03/03 12:10:45;;;;;;;15.77;8.60;;;14.20;66.60;;;;;;4954904;29;20480;-83
2021/03/03 12:13:11;;;;;;;15.60;9.07;;;14.20;65.70;;;;;;4954707;29;20446;-80
2021/03/03 12:15:38;;;;;;;19.17;8.93;;;14.20;66.10;;;;;;4957300;28;20470;-80
2021/03/03 12:18:05;;;;;;;18.83;8.50;;;14.20;65.60;;;;;;4959146;29;20438;-80
2021/03/03 12:20:32;;;;;;;15.67;8.87;;;14.20;65.50;;;;;;4958501;29;20434;-84
2021/03/03 12:22:58;;;;;;;12.90;9.00;;;14.20;66.80;;;;;;4957726;29;20445;-84
2021/03/03 12:25:25;;;;;;;15.00;8.20;;;14.10;66.40;;;;;;4958409;28;20508;-84
2021/03/03 12:27:52;;;;;;;15.50;9.43;;;14.10;65.70;;;;;;4958341;29;20497;-84
2021/03/03 12:30:19;;;;;;;14.43;7.93;;;14.20;65.60;;;;;;4957475;29;20473;-83
2021/03/03 12:32:46;;;;;;;12.57;8.53;;;14.20;65.80;;;;;;4957731;29;20438;-84
2021/03/03 12:35:13;;;;;;;19.67;9.30;;;14.20;65.30;;;;;;4957975;28;20463;-84
2021/03/03 12:37:39;;;;;;;14.47;8.03;;;14.20;65.20;;;;;;4957607;29;20474;-83
2021/03/03 12:40:07;;;;;;;14.37;7.90;;;14.10;64.80;;;;;;4957529;29;20458;-82
2021/03/03 12:42:34;;;;;;;16.40;8.90;;;14.00;66.20;;;;;;4957664;29;20446;-80
2021/03/03 12:45:01;;;;;;;15.83;9.37;;;14.10;66.40;;;;;;4957311;29;20480;-84
2021/03/03 12:47:29;;;;;;;15.53;9.33;;;14.30;66.50;;;;;;4957762;29;20450;-82
2021/03/03 12:49:56;;;;;;;13.07;8.10;;;14.40;67.20;;;;;;4957033;29;20506;-82
2021/03/03 12:52:22;;;;;;;16.00;8.80;;;14.50;67.80;;;;;;4956854;29;21014;-85
2021/03/03 12:54:49;;;;;;;12.53;8.37;;;14.50;66.50;;;;;;4957757;28;20513;-85
2021/03/03 12:57:15;;;;;;;15.20;10.00;;;14.60;65.70;;;;;;4957726;29;20418;-81
2021/03/03 12:59:41;;;;;;;15.77;9.10;;;14.60;65.40;;;;;;4957501;29;20993;-80
2021/03/03 13:02:07;;;;;;;18.97;9.70;;;14.40;64.60;;;;;;4957698;29;20446;-86
2021/03/03 13:04:34;;;;;;;13.97;8.37;;;14.50;64.80;;;;;;4957187;29;20442;-86
2021/03/03 13:07:01;;;;;;;13.50;8.97;;;14.50;64.20;;;;;;4957567;29;20426;-86
2021/03/03 13:09:27;;;;;;;15.27;9.57;;;14.40;64.20;;;;;;4958059;29;20446;-86
2021/03/03 13:11:53;;;;;;;16.97;9.10;;;14.40;63.60;;;;;;4956622;29;20965;-86
2021/03/03 13:14:20;;;;;;;16.40;8.63;;;14.40;64.40;;;;;;4957693;29;20448;-86
2021/03/03 13:16:46;;;;;;;14.27;8.53;;;14.40;64.70;;;;;;4957714;29;20422;-86
2021/03/03 13:19:13;;;;;;;14.13;8.70;;;14.50;64.50;;;;;;4957573;29;20447;-86
2021/03/03 13:21:39;;;;;;;18.17;9.77;;;14.60;63.90;;;;;;4956639;29;20915;-81
2021/03/03 13:24:08;;;;;;;16.97;8.87;;;14.70;63.40;;;;;;4937934;29;20435;-81